sensor_id;sensor_type;location;lat;lon;timestamp;P1;durP1;ratioP1;P2;durP2;ratioP2
7997;SDS011;4044;49.814;7.828;2023-04-16T00:00:48;9.60;;;8.00;;
7997;SDS011;4044;49.814;7.828;2023-04-16T00:03:14;8.70;;;7.90;;
7997;SDS011;4044;49.814;7.828;2023-04-16T00:05:40;8.60;;;7.80;;
7997;SDS011;4044;49.814;7.828;2023-04-16T00:08:05;9.30;;;8.40;;
7997;SDS011;4044;49.814;7.828;2023-04-16T00:10:31;9.97;;;8.97;;
7997;SDS011;4044;49.814;7.828;2023-04-16T00:12:58;8.83;;;8.03;;
7997;SDS011;4044;49.814;7.828;2023-04-16T00:15:23;10.13;;;8.50;;
7997;SDS011;4044;49.814;7.828;2023-04-16T00:17:49;10.20;;;9.20;;
7997;SDS011;4044;49.814;7.828;2023-04-16T00:20:14;11.07;;;9.97;;
7997;SDS011;4044;49.814;7.828;2023-04-16T00:22:40;12.33;;;9.43;;
7997;SDS011;4044;49.814;7.828;2023-04-16T00:25:06;10.57;;;9.47;;
7997;SDS011;4044;49.814;7.828;2023-04-16T00:27:31;10.87;;;9.70;;
7997;SDS011;4044;49.814;7.828;2023-04-16T00:29:57;11.07;;;9.73;;
7997;SDS011;4044;49.814;7.828;2023-04-16T00:32:22;10.30;;;9.30;;
7997;SDS011;4044;49.814;7.828;2023-04-16T00:34:48;9.90;;;8.93;;
7997;SDS011;4044;49.814;7.828;2023-04-16T00:37:13;9.90;;;8.93;;
7997;SDS011;4044;49.814;7.828;2023-04-16T00:39:39;11.30;;;9.63;;
7997;SDS011;4044;49.814;7.828;2023-04-16T00:42:04;10.07;;;9.03;;
7997;SDS011;4044;49.814;7.828;2023-04-16T00:44:30;11.73;;;9.97;;
7997;SDS011;4044;49.814;7.828;2023-04-16T00:46:55;9.87;;;8.90;;
7997;SDS011;4044;49.814;7.828;2023-04-16T00:49:22;11.53;;;10.10;;
7997;SDS011;4044;49.814;7.828;2023-04-16T00:51:48;10.90;;;9.77;;
7997;SDS011;4044;49.814;7.828;2023-04-16T00:54:14;9.83;;;8.83;;
7997;SDS011;4044;49.814;7.828;2023-04-16T00:56:40;10.07;;;9.07;;
7997;SDS011;4044;49.814;7.828;2023-04-16T00:59:06;10.83;;;9.83;;
7997;SDS011;4044;49.814;7.828;2023-04-16T01:01:32;12.00;;;9.87;;
7997;SDS011;4044;49.814;7.828;2023-04-16T01:03:57;10.40;;;9.40;;
7997;SDS011;4044;49.814;7.828;2023-04-16T01:06:23;11.87;;;10.60;;
7997;SDS011;4044;49.814;7.828;2023-04-16T01:08:49;10.87;;;9.50;;
7997;SDS011;4044;49.814;7.828;2023-04-16T01:11:15;13.03;;;10.80;;
7997;SDS011;4044;49.814;7.828;2023-04-16T01:13:41;10.90;;;9.80;;
7997;SDS011;4044;49.814;7.828;2023-04-16T01:16:07;10.77;;;9.67;;
7997;SDS011;4044;49.814;7.828;2023-04-16T01:18:33;10.37;;;9.23;;
7997;SDS011;4044;49.814;7.828;2023-04-16T01:20:59;11.40;;;10.10;;
7997;SDS011;4044;49.814;7.828;2023-04-16T01:23:25;12.30;;;11.00;;
7997;SDS011;4044;49.814;7.828;2023-04-16T01:25:50;11.67;;;9.67;;
7997;SDS011;4044;49.814;7.828;2023-04-16T01:28:16;11.40;;;10.03;;
7997;SDS011;4044;49.814;7.828;2023-04-16T01:30:41;11.33;;;10.13;;
7997;SDS011;4044;49.814;7.828;2023-04-16T01:33:09;12.53;;;9.97;;
7997;SDS011;4044;49.814;7.828;2023-04-16T01:35:34;12.03;;;10.80;;
7997;SDS011;4044;49.814;7.828;2023-04-16T01:38:00;11.37;;;9.67;;
7997;SDS011;4044;49.814;7.828;2023-04-16T01:40:26;11.63;;;10.43;;
7997;SDS011;4044;49.814;7.828;2023-04-16T01:42:52;11.20;;;10.03;;
7997;SDS011;4044;49.814;7.828;2023-04-16T01:45:17;11.07;;;9.80;;
7997;SDS011;4044;49.814;7.828;2023-04-16T01:47:43;12.83;;;10.03;;
7997;SDS011;4044;49.814;7.828;2023-04-16T01:50:09;12.07;;;10.50;;
7997;SDS011;4044;49.814;7.828;2023-04-16T01:52:35;12.57;;;10.27;;
7997;SDS011;4044;49.814;7.828;2023-04-16T01:55:01;11.83;;;10.47;;
7997;SDS011;4044;49.814;7.828;2023-04-16T01:57:26;12.23;;;10.37;;
7997;SDS011;4044;49.814;7.828;2023-04-16T01:59:52;13.13;;;10.87;;
7997;SDS011;4044;49.814;7.828;2023-04-16T02:02:17;11.77;;;10.50;;
7997;SDS011;4044;49.814;7.828;2023-04-16T02:04:43;12.80;;;10.80;;
7997;SDS011;4044;49.814;7.828;2023-04-16T02:07:10;12.07;;;10.73;;
7997;SDS011;4044;49.814;7.828;2023-04-16T02:09:37;14.47;;;11.17;;
7997;SDS011;4044;49.814;7.828;2023-04-16T02:12:03;13.37;;;11.03;;
7997;SDS011;4044;49.814;7.828;2023-04-16T02:14:29;13.13;;;11.53;;
7997;SDS011;4044;49.814;7.828;2023-04-16T02:16:55;12.67;;;10.93;;
7997;SDS011;4044;49.814;7.828;2023-04-16T02:19:22;14.90;;;11.33;;
7997;SDS011;4044;49.814;7.828;2023-04-16T02:21:50;14.57;;;11.17;;
7997;SDS011;4044;49.814;7.828;2023-04-16T02:24:16;13.80;;;11.57;;
7997;SDS011;4044;49.814;7.828;2023-04-16T02:26:42;14.70;;;11.33;;
7997;SDS011;4044;49.814;7.828;2023-04-16T02:29:07;15.20;;;12.47;;
7997;SDS011;4044;49.814;7.828;2023-04-16T02:31:33;17.03;;;13.10;;
7997;SDS011;4044;49.814;7.828;2023-04-16T02:33:58;16.77;;;13.53;;
7997;SDS011;4044;49.814;7.828;2023-04-16T02:36:24;15.47;;;12.33;;
7997;SDS011;4044;49.814;7.828;2023-04-16T02:38:49;14.57;;;12.17;;
7997;SDS011;4044;49.814;7.828;2023-04-16T02:41:15;16.20;;;12.83;;
7997;SDS011;4044;49.814;7.828;2023-04-16T02:43:41;15.03;;;12.23;;
7997;SDS011;4044;49.814;7.828;2023-04-16T02:46:06;14.93;;;12.53;;
7997;SDS011;4044;49.814;7.828;2023-04-16T02:48:32;17.30;;;13.20;;
7997;SDS011;4044;49.814;7.828;2023-04-16T02:50:57;15.07;;;11.77;;
7997;SDS011;4044;49.814;7.828;2023-04-16T02:53:23;12.70;;;11.00;;
7997;SDS011;4044;49.814;7.828;2023-04-16T02:55:52;15.20;;;12.20;;
7997;SDS011;4044;49.814;7.828;2023-04-16T02:58:19;14.67;;;11.70;;
7997;SDS011;4044;49.814;7.828;2023-04-16T03:00:46;13.60;;;11.40;;
7997;SDS011;4044;49.814;7.828;2023-04-16T03:03:12;14.33;;;11.37;;
7997;SDS011;4044;49.814;7.828;2023-04-16T03:05:38;12.40;;;10.27;;
7997;SDS011;4044;49.814;7.828;2023-04-16T03:08:03;13.37;;;10.80;;
7997;SDS011;4044;49.814;7.828;2023-04-16T03:10:29;10.97;;;9.03;;
7997;SDS011;4044;49.814;7.828;2023-04-16T03:12:55;10.53;;;9.27;;
7997;SDS011;4044;49.814;7.828;2023-04-16T03:15:20;12.43;;;9.73;;
7997;SDS011;4044;49.814;7.828;2023-04-16T03:17:46;11.83;;;9.13;;
7997;SDS011;4044;49.814;7.828;2023-04-16T03:20:11;11.53;;;9.30;;
7997;SDS011;4044;49.814;7.828;2023-04-16T03:22:38;11.27;;;9.07;;
7997;SDS011;4044;49.814;7.828;2023-04-16T03:25:04;10.90;;;9.03;;
7997;SDS011;4044;49.814;7.828;2023-04-16T03:27:30;11.87;;;8.60;;
7997;SDS011;4044;49.814;7.828;2023-04-16T03:29:56;10.77;;;8.37;;
7997;SDS011;4044;49.814;7.828;2023-04-16T03:32:22;10.20;;;7.77;;
7997;SDS011;4044;49.814;7.828;2023-04-16T03:34:47;10.17;;;8.40;;
7997;SDS011;4044;49.814;7.828;2023-04-16T03:37:13;10.47;;;8.67;;
7997;SDS011;4044;49.814;7.828;2023-04-16T03:39:38;11.00;;;8.57;;
7997;SDS011;4044;49.814;7.828;2023-04-16T03:42:04;9.83;;;7.43;;
7997;SDS011;4044;49.814;7.828;2023-04-16T03:44:30;8.97;;;8.03;;
7997;SDS011;4044;49.814;7.828;2023-04-16T03:46:55;8.53;;;7.07;;
7997;SDS011;4044;49.814;7.828;2023-04-16T03:49:21;8.50;;;7.43;;
7997;SDS011;4044;49.814;7.828;2023-04-16T03:51:46;8.57;;;7.67;;
7997;SDS011;4044;49.814;7.828;2023-04-16T03:54:11;7.93;;;7.13;;
7997;SDS011;4044;49.814;7.828;2023-04-16T03:56:38;9.30;;;8.07;;
7997;SDS011;4044;49.814;7.828;2023-04-16T03:59:05;9.77;;;7.73;;
7997;SDS011;4044;49.814;7.828;2023-04-16T04:01:30;8.87;;;7.37;;
7997;SDS011;4044;49.814;7.828;2023-04-16T04:03:56;8.50;;;7.60;;
7997;SDS011;4044;49.814;7.828;2023-04-16T04:06:21;8.20;;;7.07;;
7997;SDS011;4044;49.814;7.828;2023-04-16T04:08:47;7.23;;;6.50;;
7997;SDS011;4044;49.814;7.828;2023-04-16T04:11:12;8.07;;;7.13;;
7997;SDS011;4044;49.814;7.828;2023-04-16T04:13:38;9.40;;;7.40;;
7997;SDS011;4044;49.814;7.828;2023-04-16T04:16:04;9.43;;;7.63;;
7997;SDS011;4044;49.814;7.828;2023-04-16T04:18:30;8.57;;;7.17;;
7997;SDS011;4044;49.814;7.828;2023-04-16T04:20:55;8.87;;;6.57;;
7997;SDS011;4044;49.814;7.828;2023-04-16T04:23:21;8.10;;;6.43;;
7997;SDS011;4044;49.814;7.828;2023-04-16T04:25:47;8.53;;;7.43;;
7997;SDS011;4044;49.814;7.828;2023-04-16T04:28:13;7.87;;;6.83;;
7997;SDS011;4044;49.814;7.828;2023-04-16T04:30:39;8.70;;;7.47;;
7997;SDS011;4044;49.814;7.828;2023-04-16T04:33:04;8.13;;;6.90;;
7997;SDS011;4044;49.814;7.828;2023-04-16T04:35:30;8.87;;;7.77;;
7997;SDS011;4044;49.814;7.828;2023-04-16T04:37:55;8.90;;;7.30;;
7997;SDS011;4044;49.814;7.828;2023-04-16T04:40:21;9.57;;;7.27;;
7997;SDS011;4044;49.814;7.828;2023-04-16T04:42:46;9.33;;;7.50;;
7997;SDS011;4044;49.814;7.828;2023-04-16T04:45:12;7.50;;;6.60;;
7997;SDS011;4044;49.814;7.828;2023-04-16T04:47:37;9.33;;;7.73;;
7997;SDS011;4044;49.814;7.828;2023-04-16T04:50:03;8.73;;;7.83;;
7997;SDS011;4044;49.814;7.828;2023-04-16T04:52:29;8.53;;;7.33;;
7997;SDS011;4044;49.814;7.828;2023-04-16T04:54:55;8.10;;;7.07;;
7997;SDS011;4044;49.814;7.828;2023-04-16T04:57:21;8.60;;;7.13;;
7997;SDS011;4044;49.814;7.828;2023-04-16T04:59:46;10.10;;;7.87;;
7997;SDS011;4044;49.814;7.828;2023-04-16T05:02:12;10.57;;;8.13;;
7997;SDS011;4044;49.814;7.828;2023-04-16T05:04:37;9.87;;;7.53;;
7997;SDS011;4044;49.814;7.828;2023-04-16T05:07:03;8.70;;;7.63;;
7997;SDS011;4044;49.814;7.828;2023-04-16T05:09:28;8.80;;;7.17;;
7997;SDS011;4044;49.814;7.828;2023-04-16T05:11:54;8.77;;;7.33;;
7997;SDS011;4044;49.814;7.828;2023-04-16T05:14:21;8.23;;;6.87;;
7997;SDS011;4044;49.814;7.828;2023-04-16T05:16:47;9.20;;;7.87;;
7997;SDS011;4044;49.814;7.828;2023-04-16T05:19:12;10.53;;;7.97;;
7997;SDS011;4044;49.814;7.828;2023-04-16T05:21:38;8.70;;;7.80;;
7997;SDS011;4044;49.814;7.828;2023-04-16T05:24:03;10.07;;;7.90;;
7997;SDS011;4044;49.814;7.828;2023-04-16T05:26:30;12.60;;;8.30;;
7997;SDS011;4044;49.814;7.828;2023-04-16T05:28:55;10.90;;;8.80;;
7997;SDS011;4044;49.814;7.828;2023-04-16T05:31:21;9.30;;;7.47;;
7997;SDS011;4044;49.814;7.828;2023-04-16T05:33:46;11.00;;;8.77;;
7997;SDS011;4044;49.814;7.828;2023-04-16T05:36:12;12.07;;;8.50;;
7997;SDS011;4044;49.814;7.828;2023-04-16T05:38:37;10.77;;;8.40;;
7997;SDS011;4044;49.814;7.828;2023-04-16T05:41:03;9.50;;;7.67;;
7997;SDS011;4044;49.814;7.828;2023-04-16T05:43:28;9.13;;;7.63;;
7997;SDS011;4044;49.814;7.828;2023-04-16T05:45:54;11.53;;;8.17;;
7997;SDS011;4044;49.814;7.828;2023-04-16T05:48:19;9.10;;;7.40;;
7997;SDS011;4044;49.814;7.828;2023-04-16T05:50:45;9.67;;;7.63;;
7997;SDS011;4044;49.814;7.828;2023-04-16T05:53:10;10.27;;;7.70;;
7997;SDS011;4044;49.814;7.828;2023-04-16T05:55:38;9.93;;;7.77;;
7997;SDS011;4044;49.814;7.828;2023-04-16T05:58:03;9.70;;;7.60;;
7997;SDS011;4044;49.814;7.828;2023-04-16T06:00:29;10.83;;;8.23;;
7997;SDS011;4044;49.814;7.828;2023-04-16T06:02:58;10.90;;;8.40;;
7997;SDS011;4044;49.814;7.828;2023-04-16T06:05:26;12.03;;;9.23;;
7997;SDS011;4044;49.814;7.828;2023-04-16T06:07:53;10.23;;;8.53;;
7997;SDS011;4044;49.814;7.828;2023-04-16T06:10:19;11.90;;;8.30;;
7997;SDS011;4044;49.814;7.828;2023-04-16T06:12:45;11.50;;;8.27;;
7997;SDS011;4044;49.814;7.828;2023-04-16T06:15:11;11.67;;;8.77;;
7997;SDS011;4044;49.814;7.828;2023-04-16T06:17:36;9.80;;;7.87;;
7997;SDS011;4044;49.814;7.828;2023-04-16T06:20:01;11.40;;;8.83;;
7997;SDS011;4044;49.814;7.828;2023-04-16T06:22:27;11.43;;;8.70;;
7997;SDS011;4044;49.814;7.828;2023-04-16T06:24:53;10.23;;;8.37;;
7997;SDS011;4044;49.814;7.828;2023-04-16T06:27:18;11.10;;;7.80;;
7997;SDS011;4044;49.814;7.828;2023-04-16T06:29:44;9.77;;;8.23;;
7997;SDS011;4044;49.814;7.828;2023-04-16T06:32:09;10.67;;;7.97;;
7997;SDS011;4044;49.814;7.828;2023-04-16T06:34:36;9.93;;;8.57;;
7997;SDS011;4044;49.814;7.828;2023-04-16T06:37:02;11.47;;;8.13;;
7997;SDS011;4044;49.814;7.828;2023-04-16T06:39:27;10.10;;;8.00;;
7997;SDS011;4044;49.814;7.828;2023-04-16T06:41:53;10.30;;;7.90;;
7997;SDS011;4044;49.814;7.828;2023-04-16T06:44:18;9.40;;;7.57;;
7997;SDS011;4044;49.814;7.828;2023-04-16T06:46:44;10.37;;;7.90;;
7997;SDS011;4044;49.814;7.828;2023-04-16T06:49:09;9.77;;;7.80;;
7997;SDS011;4044;49.814;7.828;2023-04-16T06:51:35;11.03;;;7.97;;
7997;SDS011;4044;49.814;7.828;2023-04-16T06:54:00;10.30;;;7.67;;
7997;SDS011;4044;49.814;7.828;2023-04-16T06:56:26;10.60;;;7.60;;
7997;SDS011;4044;49.814;7.828;2023-04-16T06:58:51;8.67;;;6.90;;
7997;SDS011;4044;49.814;7.828;2023-04-16T07:01:17;9.27;;;6.80;;
7997;SDS011;4044;49.814;7.828;2023-04-16T07:03:42;10.03;;;7.10;;
7997;SDS011;4044;49.814;7.828;2023-04-16T07:06:08;8.80;;;7.23;;
7997;SDS011;4044;49.814;7.828;2023-04-16T07:08:34;11.40;;;7.57;;
7997;SDS011;4044;49.814;7.828;2023-04-16T07:10:59;8.93;;;7.43;;
7997;SDS011;4044;49.814;7.828;2023-04-16T07:13:25;9.87;;;7.07;;
7997;SDS011;4044;49.814;7.828;2023-04-16T07:15:51;7.60;;;6.80;;
7997;SDS011;4044;49.814;7.828;2023-04-16T07:18:17;8.57;;;6.80;;
7997;SDS011;4044;49.814;7.828;2023-04-16T07:20:42;8.13;;;7.00;;
7997;SDS011;4044;49.814;7.828;2023-04-16T07:23:08;8.60;;;7.70;;
7997;SDS011;4044;49.814;7.828;2023-04-16T07:25:33;7.93;;;6.33;;
7997;SDS011;4044;49.814;7.828;2023-04-16T07:27:59;7.33;;;6.40;;
7997;SDS011;4044;49.814;7.828;2023-04-16T07:30:24;8.33;;;7.00;;
7997;SDS011;4044;49.814;7.828;2023-04-16T07:32:56;9.40;;;7.27;;
7997;SDS011;4044;49.814;7.828;2023-04-16T07:35:22;8.33;;;7.03;;
7997;SDS011;4044;49.814;7.828;2023-04-16T07:37:47;8.53;;;7.33;;
7997;SDS011;4044;49.814;7.828;2023-04-16T07:40:13;8.27;;;6.83;;
7997;SDS011;4044;49.814;7.828;2023-04-16T07:42:38;10.50;;;7.83;;
7997;SDS011;4044;49.814;7.828;2023-04-16T07:45:04;9.73;;;8.13;;
7997;SDS011;4044;49.814;7.828;2023-04-16T07:47:30;8.93;;;7.83;;
7997;SDS011;4044;49.814;7.828;2023-04-16T07:49:55;9.60;;;8.23;;
7997;SDS011;4044;49.814;7.828;2023-04-16T07:52:21;8.63;;;7.50;;
7997;SDS011;4044;49.814;7.828;2023-04-16T07:54:46;8.53;;;7.63;;
7997;SDS011;4044;49.814;7.828;2023-04-16T07:57:12;9.87;;;8.00;;
7997;SDS011;4044;49.814;7.828;2023-04-16T07:59:37;10.87;;;9.10;;
7997;SDS011;4044;49.814;7.828;2023-04-16T08:02:03;12.53;;;8.83;;
7997;SDS011;4044;49.814;7.828;2023-04-16T08:04:30;11.67;;;9.00;;
7997;SDS011;4044;49.814;7.828;2023-04-16T08:06:55;10.50;;;9.20;;
7997;SDS011;4044;49.814;7.828;2023-04-16T08:09:21;11.43;;;9.33;;
7997;SDS011;4044;49.814;7.828;2023-04-16T08:11:50;10.20;;;8.77;;
7997;SDS011;4044;49.814;7.828;2023-04-16T08:14:16;11.33;;;9.40;;
7997;SDS011;4044;49.814;7.828;2023-04-16T08:16:41;11.70;;;9.77;;
7997;SDS011;4044;49.814;7.828;2023-04-16T08:19:07;13.03;;;10.30;;
7997;SDS011;4044;49.814;7.828;2023-04-16T08:21:32;11.40;;;9.43;;
7997;SDS011;4044;49.814;7.828;2023-04-16T08:23:58;12.67;;;9.60;;
7997;SDS011;4044;49.814;7.828;2023-04-16T08:26:23;13.37;;;9.90;;
7997;SDS011;4044;49.814;7.828;2023-04-16T08:28:49;14.47;;;10.93;;
7997;SDS011;4044;49.814;7.828;2023-04-16T08:31:14;12.90;;;10.77;;
7997;SDS011;4044;49.814;7.828;2023-04-16T08:33:40;11.27;;;9.33;;
7997;SDS011;4044;49.814;7.828;2023-04-16T08:36:06;14.07;;;10.60;;
7997;SDS011;4044;49.814;7.828;2023-04-16T08:38:31;12.50;;;10.90;;
7997;SDS011;4044;49.814;7.828;2023-04-16T08:40:57;12.90;;;10.33;;
7997;SDS011;4044;49.814;7.828;2023-04-16T08:43:27;15.47;;;11.33;;
7997;SDS011;4044;49.814;7.828;2023-04-16T08:45:58;16.97;;;11.70;;
7997;SDS011;4044;49.814;7.828;2023-04-16T08:48:25;13.53;;;10.83;;
7997;SDS011;4044;49.814;7.828;2023-04-16T08:50:56;12.30;;;10.50;;
7997;SDS011;4044;49.814;7.828;2023-04-16T08:53:34;13.93;;;10.67;;
7997;SDS011;4044;49.814;7.828;2023-04-16T08:56:04;14.90;;;11.33;;
7997;SDS011;4044;49.814;7.828;2023-04-16T08:58:32;15.27;;;10.93;;
7997;SDS011;4044;49.814;7.828;2023-04-16T09:01:00;12.23;;;9.90;;
7997;SDS011;4044;49.814;7.828;2023-04-16T09:03:27;14.23;;;10.83;;
7997;SDS011;4044;49.814;7.828;2023-04-16T09:05:55;15.67;;;11.33;;
7997;SDS011;4044;49.814;7.828;2023-04-16T09:08:23;14.83;;;11.53;;
7997;SDS011;4044;49.814;7.828;2023-04-16T09:10:50;14.90;;;11.70;;
7997;SDS011;4044;49.814;7.828;2023-04-16T09:13:15;14.77;;;11.53;;
7997;SDS011;4044;49.814;7.828;2023-04-16T09:15:44;16.50;;;11.87;;
7997;SDS011;4044;49.814;7.828;2023-04-16T09:18:10;14.53;;;10.80;;
7997;SDS011;4044;49.814;7.828;2023-04-16T09:20:36;12.97;;;11.37;;
7997;SDS011;4044;49.814;7.828;2023-04-16T09:23:02;14.00;;;11.00;;
7997;SDS011;4044;49.814;7.828;2023-04-16T09:25:31;15.53;;;11.33;;
7997;SDS011;4044;49.814;7.828;2023-04-16T09:28:01;14.63;;;11.20;;
7997;SDS011;4044;49.814;7.828;2023-04-16T09:30:27;13.87;;;10.93;;
7997;SDS011;4044;49.814;7.828;2023-04-16T09:33:26;14.23;;;11.17;;
7997;SDS011;4044;49.814;7.828;2023-04-16T09:35:48;13.10;;;10.97;;
7997;SDS011;4044;49.814;7.828;2023-04-16T09:38:15;13.80;;;10.33;;
7997;SDS011;4044;49.814;7.828;2023-04-16T09:40:41;14.23;;;11.00;;
7997;SDS011;4044;49.814;7.828;2023-04-16T09:43:11;19.07;;;11.70;;
7997;SDS011;4044;49.814;7.828;2023-04-16T09:48:14;15.27;;;11.07;;
7997;SDS011;4044;49.814;7.828;2023-04-16T09:50:45;15.77;;;12.10;;
7997;SDS011;4044;49.814;7.828;2023-04-16T09:53:22;14.77;;;10.83;;
7997;SDS011;4044;49.814;7.828;2023-04-16T09:55:54;13.93;;;10.90;;
7997;SDS011;4044;49.814;7.828;2023-04-16T09:58:24;13.43;;;11.30;;
7997;SDS011;4044;49.814;7.828;2023-04-16T10:01:02;14.53;;;11.33;;
7997;SDS011;4044;49.814;7.828;2023-04-16T10:03:33;13.13;;;10.47;;
7997;SDS011;4044;49.814;7.828;2023-04-16T10:06:05;14.13;;;10.53;;
7997;SDS011;4044;49.814;7.828;2023-04-16T10:08:33;15.40;;;10.97;;
7997;SDS011;4044;49.814;7.828;2023-04-16T10:10:59;14.33;;;11.20;;
7997;SDS011;4044;49.814;7.828;2023-04-16T10:13:25;14.03;;;10.73;;
7997;SDS011;4044;49.814;7.828;2023-04-16T10:15:52;12.57;;;10.03;;
7997;SDS011;4044;49.814;7.828;2023-04-16T10:18:22;15.20;;;10.47;;
7997;SDS011;4044;49.814;7.828;2023-04-16T10:20:51;14.03;;;10.80;;
7997;SDS011;4044;49.814;7.828;2023-04-16T10:23:18;13.57;;;10.60;;
7997;SDS011;4044;49.814;7.828;2023-04-16T10:25:46;14.73;;;10.90;;
7997;SDS011;4044;49.814;7.828;2023-04-16T10:28:16;15.10;;;10.87;;
7997;SDS011;4044;49.814;7.828;2023-04-16T10:30:46;14.37;;;11.13;;
7997;SDS011;4044;49.814;7.828;2023-04-16T10:33:20;13.60;;;11.10;;
7997;SDS011;4044;49.814;7.828;2023-04-16T10:38:36;15.23;;;11.03;;
7997;SDS011;4044;49.814;7.828;2023-04-16T10:41:04;15.20;;;11.73;;
7997;SDS011;4044;49.814;7.828;2023-04-16T10:43:31;14.20;;;11.50;;
7997;SDS011;4044;49.814;7.828;2023-04-16T10:46:16;14.53;;;11.30;;
7997;SDS011;4044;49.814;7.828;2023-04-16T10:48:48;13.63;;;10.97;;
7997;SDS011;4044;49.814;7.828;2023-04-16T10:51:32;15.40;;;11.50;;
7997;SDS011;4044;49.814;7.828;2023-04-16T10:56:34;14.80;;;11.07;;
7997;SDS011;4044;49.814;7.828;2023-04-16T10:59:03;13.30;;;10.67;;
7997;SDS011;4044;49.814;7.828;2023-04-16T11:01:30;13.83;;;11.23;;
7997;SDS011;4044;49.814;7.828;2023-04-16T11:03:58;12.90;;;10.20;;
7997;SDS011;4044;49.814;7.828;2023-04-16T11:06:26;15.00;;;10.80;;
7997;SDS011;4044;49.814;7.828;2023-04-16T11:08:52;13.47;;;10.53;;
7997;SDS011;4044;49.814;7.828;2023-04-16T11:11:18;13.10;;;10.50;;
7997;SDS011;4044;49.814;7.828;2023-04-16T11:13:44;13.87;;;10.80;;
7997;SDS011;4044;49.814;7.828;2023-04-16T11:16:12;13.23;;;10.67;;
7997;SDS011;4044;49.814;7.828;2023-04-16T11:18:38;14.60;;;11.33;;
7997;SDS011;4044;49.814;7.828;2023-04-16T11:21:08;15.63;;;11.23;;
7997;SDS011;4044;49.814;7.828;2023-04-16T11:23:51;14.10;;;11.67;;
7997;SDS011;4044;49.814;7.828;2023-04-16T11:26:27;15.27;;;11.87;;
7997;SDS011;4044;49.814;7.828;2023-04-16T11:28:54;15.87;;;11.80;;
7997;SDS011;4044;49.814;7.828;2023-04-16T11:31:21;16.57;;;12.33;;
7997;SDS011;4044;49.814;7.828;2023-04-16T11:33:47;18.33;;;13.77;;
7997;SDS011;4044;49.814;7.828;2023-04-16T11:36:13;15.53;;;12.60;;
7997;SDS011;4044;49.814;7.828;2023-04-16T11:38:39;17.03;;;13.43;;
7997;SDS011;4044;49.814;7.828;2023-04-16T11:41:07;19.20;;;13.83;;
7997;SDS011;4044;49.814;7.828;2023-04-16T11:43:34;18.37;;;14.13;;
7997;SDS011;4044;49.814;7.828;2023-04-16T11:46:00;18.50;;;13.90;;
7997;SDS011;4044;49.814;7.828;2023-04-16T11:48:50;17.60;;;14.23;;
7997;SDS011;4044;49.814;7.828;2023-04-16T11:51:16;16.60;;;13.63;;
7997;SDS011;4044;49.814;7.828;2023-04-16T11:56:12;18.30;;;14.67;;
7997;SDS011;4044;49.814;7.828;2023-04-16T11:58:38;19.73;;;14.80;;
7997;SDS011;4044;49.814;7.828;2023-04-16T12:01:04;17.20;;;15.10;;
7997;SDS011;4044;49.814;7.828;2023-04-16T12:03:41;17.67;;;14.70;;
7997;SDS011;4044;49.814;7.828;2023-04-16T12:06:10;20.47;;;15.13;;
7997;SDS011;4044;49.814;7.828;2023-04-16T12:08:36;18.77;;;14.67;;
7997;SDS011;4044;49.814;7.828;2023-04-16T12:11:01;16.83;;;14.50;;
7997;SDS011;4044;49.814;7.828;2023-04-16T12:13:27;20.90;;;15.40;;
7997;SDS011;4044;49.814;7.828;2023-04-16T12:15:53;18.57;;;15.03;;
7997;SDS011;4044;49.814;7.828;2023-04-16T12:18:20;17.47;;;15.30;;
7997;SDS011;4044;49.814;7.828;2023-04-16T12:20:47;19.00;;;15.27;;
7997;SDS011;4044;49.814;7.828;2023-04-16T12:23:23;19.27;;;15.33;;
7997;SDS011;4044;49.814;7.828;2023-04-16T12:25:48;19.20;;;14.83;;
7997;SDS011;4044;49.814;7.828;2023-04-16T12:28:25;18.97;;;15.23;;
7997;SDS011;4044;49.814;7.828;2023-04-16T12:30:55;17.77;;;14.23;;
7997;SDS011;4044;49.814;7.828;2023-04-16T12:33:21;18.13;;;14.87;;
7997;SDS011;4044;49.814;7.828;2023-04-16T12:35:47;18.73;;;14.90;;
7997;SDS011;4044;49.814;7.828;2023-04-16T12:38:12;16.87;;;14.57;;
7997;SDS011;4044;49.814;7.828;2023-04-16T12:40:41;19.33;;;15.47;;
7997;SDS011;4044;49.814;7.828;2023-04-16T12:43:08;17.60;;;14.25;;
7997;SDS011;4044;49.814;7.828;2023-04-16T12:45:34;17.03;;;14.60;;
7997;SDS011;4044;49.814;7.828;2023-04-16T12:48:00;18.90;;;14.30;;
7997;SDS011;4044;49.814;7.828;2023-04-16T12:50:25;16.97;;;15.03;;
7997;SDS011;4044;49.814;7.828;2023-04-16T12:52:52;17.97;;;15.43;;
7997;SDS011;4044;49.814;7.828;2023-04-16T12:55:19;16.92;;;14.77;;
7997;SDS011;4044;49.814;7.828;2023-04-16T12:57:44;16.30;;;13.85;;
7997;SDS011;4044;49.814;7.828;2023-04-16T13:00:12;17.75;;;14.00;;
7997;SDS011;4044;49.814;7.828;2023-04-16T13:02:40;18.17;;;14.45;;
7997;SDS011;4044;49.814;7.828;2023-04-16T13:05:05;16.23;;;14.25;;
7997;SDS011;4044;49.814;7.828;2023-04-16T13:07:32;16.23;;;14.48;;
7997;SDS011;4044;49.814;7.828;2023-04-16T13:09:58;19.42;;;16.00;;
7997;SDS011;4044;49.814;7.828;2023-04-16T13:12:24;17.13;;;14.13;;
7997;SDS011;4044;49.814;7.828;2023-04-16T13:14:51;15.90;;;14.15;;
7997;SDS011;4044;49.814;7.828;2023-04-16T13:17:16;17.35;;;14.20;;
7997;SDS011;4044;49.814;7.828;2023-04-16T13:19:42;19.83;;;15.23;;
7997;SDS011;4044;49.814;7.828;2023-04-16T13:22:07;19.38;;;15.15;;
7997;SDS011;4044;49.814;7.828;2023-04-16T13:24:33;18.33;;;14.67;;
7997;SDS011;4044;49.814;7.828;2023-04-16T13:26:59;17.20;;;14.03;;
7997;SDS011;4044;49.814;7.828;2023-04-16T13:29:24;16.50;;;13.87;;
7997;SDS011;4044;49.814;7.828;2023-04-16T13:31:50;17.80;;;14.17;;
7997;SDS011;4044;49.814;7.828;2023-04-16T13:34:15;18.87;;;14.70;;
7997;SDS011;4044;49.814;7.828;2023-04-16T13:36:41;20.33;;;14.47;;
7997;SDS011;4044;49.814;7.828;2023-04-16T13:39:06;16.37;;;14.40;;
7997;SDS011;4044;49.814;7.828;2023-04-16T13:41:38;15.82;;;13.95;;
7997;SDS011;4044;49.814;7.828;2023-04-16T13:44:04;16.50;;;13.75;;
7997;SDS011;4044;49.814;7.828;2023-04-16T13:46:30;17.48;;;14.60;;
7997;SDS011;4044;49.814;7.828;2023-04-16T13:48:55;18.33;;;14.77;;
7997;SDS011;4044;49.814;7.828;2023-04-16T13:51:21;18.20;;;16.00;;
7997;SDS011;4044;49.814;7.828;2023-04-16T13:53:47;17.98;;;14.98;;
7997;SDS011;4044;49.814;7.828;2023-04-16T13:56:13;17.83;;;14.90;;
7997;SDS011;4044;49.814;7.828;2023-04-16T13:58:38;18.60;;;14.77;;
7997;SDS011;4044;49.814;7.828;2023-04-16T14:01:05;17.65;;;14.25;;
7997;SDS011;4044;49.814;7.828;2023-04-16T14:03:31;16.73;;;14.77;;
7997;SDS011;4044;49.814;7.828;2023-04-16T14:05:59;17.60;;;14.25;;
7997;SDS011;4044;49.814;7.828;2023-04-16T14:08:28;16.85;;;13.23;;
7997;SDS011;4044;49.814;7.828;2023-04-16T14:10:55;15.93;;;14.23;;
7997;SDS011;4044;49.814;7.828;2023-04-16T14:13:21;16.55;;;14.57;;
7997;SDS011;4044;49.814;7.828;2023-04-16T14:15:46;16.90;;;14.25;;
7997;SDS011;4044;49.814;7.828;2023-04-16T14:18:12;16.85;;;14.90;;
7997;SDS011;4044;49.814;7.828;2023-04-16T14:20:37;16.42;;;14.35;;
7997;SDS011;4044;49.814;7.828;2023-04-16T14:23:04;16.80;;;13.90;;
7997;SDS011;4044;49.814;7.828;2023-04-16T14:25:30;15.68;;;13.98;;
7997;SDS011;4044;49.814;7.828;2023-04-16T14:27:55;14.18;;;12.63;;
7997;SDS011;4044;49.814;7.828;2023-04-16T14:30:22;17.85;;;13.95;;
7997;SDS011;4044;49.814;7.828;2023-04-16T14:32:48;15.75;;;13.52;;
7997;SDS011;4044;49.814;7.828;2023-04-16T14:35:13;14.65;;;13.15;;
7997;SDS011;4044;49.814;7.828;2023-04-16T14:37:39;14.68;;;13.18;;
7997;SDS011;4044;49.814;7.828;2023-04-16T14:40:06;14.75;;;12.38;;
7997;SDS011;4044;49.814;7.828;2023-04-16T14:42:32;16.90;;;12.77;;
7997;SDS011;4044;49.814;7.828;2023-04-16T14:45:00;13.73;;;12.27;;
7997;SDS011;4044;49.814;7.828;2023-04-16T14:47:26;12.65;;;11.40;;
7997;SDS011;4044;49.814;7.828;2023-04-16T14:49:52;12.95;;;11.65;;
7997;SDS011;4044;49.814;7.828;2023-04-16T14:52:18;14.07;;;12.60;;
7997;SDS011;4044;49.814;7.828;2023-04-16T14:54:43;14.48;;;12.38;;
7997;SDS011;4044;49.814;7.828;2023-04-16T14:57:09;12.40;;;11.10;;
7997;SDS011;4044;49.814;7.828;2023-04-16T14:59:34;12.93;;;11.07;;
7997;SDS011;4044;49.814;7.828;2023-04-16T15:02:00;11.07;;;9.82;;
7997;SDS011;4044;49.814;7.828;2023-04-16T15:04:26;11.90;;;10.73;;